Time,TemperatureF,DewpointF,PressureIn,WindDirection,WindDirectionDegrees,WindSpeedMPH,WindSpeedGustMPH,Humidity,HourlyPrecipIn,Conditions,Clouds,dailyrainin,SoftwareType,DateUTC
2013-02-25 00:00:00,49.8,-2.7,29.83,SW,225,9.2,9.2,11,0.00,CLR,FEW,0.00,WeatherDisplay:10.37,2013-02-25 06:00:00,
2013-02-25 00:05:00,49.8,-2.7,29.82,SW,225,8.3,8.3,11,0.00,CLR,FEW,0.00,WeatherDisplay:10.37,2013-02-25 06:05:00,
2013-02-25 00:10:00,49.3,-3.1,29.83,South,180,10.4,10.4,11,0.00,CLR,FEW,0.00,WeatherDisplay:10.37,2013-02-25 06:10:00,
2013-02-25 00:15:00,49.1,-3.3,29.83,West,270,8.1,8.1,11,0.00,CLR,FEW,0.00,WeatherDisplay:10.37,2013-02-25 06:15:00,
2013-02-25 00:20:00,49.1,-3.3,29.83,West,270,8.1,8.1,11,0.00,CLR,FEW,0.00,WeatherDisplay:10.37,2013-02-25 06:20:00,
2013-02-25 00:25:00,49.1,-3.3,29.83,West,270,8.1,8.1,11,0.00,CLR,FEW,0.00,WeatherDisplay:10.37,2013-02-25 06:25:00,
2013-02-25 00:30:00,48.0,-4.1,29.84,South,180,8.1,8.1,11,0.00,CLR,FEW,0.00,WeatherDisplay:10.37,2013-02-25 06:30:00,
2013-02-25 00:35:00,47.8,-4.3,29.84,SSW,202,10.4,10.4,11,0.00,CLR,FEW,0.00,WeatherDisplay:10.37,2013-02-25 06:35:00,
2013-02-25 00:40:00,47.7,-4.4,29.84,SW,225,11.5,11.5,11,0.00,CLR,FEW,0.00,WeatherDisplay:10.37,2013-02-25 06:40:00,
2013-02-25 00:45:00,47.5,-4.5,29.84,South,180,12.7,12.7,11,0.00,CLR,FEW,0.00,WeatherDisplay:10.37,2013-02-25 06:45:00,
2013-02-25 00:50:00,47.5,-2.7,29.84,SW,225,13.8,13.8,12,0.00,CLR,FEW,0.00,WeatherDisplay:10.37,2013-02-25 06:50:00,
2013-02-25 00:55:00,47.5,3.4,29.84,South,180,20.7,20.7,16,0.00,CLR,FEW,0.00,WeatherDisplay:10.37,2013-02-25 06:55:00,
2013-02-25 01:00:00,47.5,6.0,29.85,SW,225,12.7,12.7,18,0.00,CLR,FEW,0.00,WeatherDisplay:10.37,2013-02-25 07:00:00,
2013-02-25 01:05:00,47.5,6.0,29.85,SW,225,12.7,12.7,18,0.00,CLR,FEW,0.00,WeatherDisplay:10.37,2013-02-25 07:05:00,
2013-02-25 01:10:00,47.1,8.0,29.85,WNW,292,11.5,11.5,20,0.00,CLR,FEW,0.00,WeatherDisplay:10.37,2013-02-25 07:10:00,
2013-02-25 01:15:00,46.9,7.9,29.86,WNW,292,8.1,8.1,20,0.00,CLR,FEW,0.00,WeatherDisplay:10.37,2013-02-25 07:15:00,
2013-02-25 01:20:00,46.9,7.9,29.87,WNW,292,8.1,8.1,20,0.00,CLR,FEW,0.00,WeatherDisplay:10.37,2013-02-25 07:20:00,
2013-02-25 01:25:00,46.4,9.6,29.86,NNW,338,13.8,13.8,22,0.00,CLR,FEW,0.00,WeatherDisplay:10.37,2013-02-25 07:25:00,
2013-02-25 01:30:00,46.4,10.5,29.86,SW,225,10.4,10.4,23,0.00,CLR,FEW,0.00,WeatherDisplay:10.37,2013-02-25 07:30:00,
2013-02-25 01:35:00,46.2,10.4,29.86,South,180,12.7,12.7,23,0.00,CLR,FEW,0.00,WeatherDisplay:10.37,2013-02-25 07:35:00,
2013-02-25 01:40:00,46.0,11.2,29.86,SW,225,13.8,13.8,24,0.00,CLR,FEW,0.00,WeatherDisplay:10.37,2013-02-25 07:40:00,
2013-02-25 01:45:00,46.0,11.2,29.86,NW,315,15.0,15.0,24,0.00,CLR,FEW,0.00,WeatherDisplay:10.37,2013-02-25 07:45:00,
2013-02-25 01:50:00,46.0,12.1,29.86,SW,225,19.6,19.6,25,0.00,CLR,FEW,0.00,WeatherDisplay:10.37,2013-02-25 07:50:00,
2013-02-25 01:55:00,45.9,12.0,29.86,West,270,25.3,25.3,25,0.00,CLR,FEW,0.00,WeatherDisplay:10.37,2013-02-25 07:55:00,
2013-02-25 02:00:00,45.9,12.0,29.87,West,270,13.8,13.8,25,0.00,CLR,FEW,0.00,WeatherDisplay:10.37,2013-02-25 08:00:00,
2013-02-25 02:05:00,45.9,12.0,29.88,West,270,13.8,13.8,25,0.00,CLR,FEW,0.00,WeatherDisplay:10.37,2013-02-25 08:05:00,
2013-02-25 02:10:00,45.1,12.2,29.88,South,180,10.4,10.4,26,0.00,CLR,FEW,0.00,WeatherDisplay:10.37,2013-02-25 08:10:00,
2013-02-25 02:15:00,44.8,12.8,29.88,SW,225,10.4,10.4,27,0.00,CLR,FEW,0.00,WeatherDisplay:10.37,2013-02-25 08:15:00,
2013-02-25 02:20:00,44.6,12.6,29.88,SW,225,12.7,12.7,27,0.00,CLR,FEW,0.00,WeatherDisplay:10.37,2013-02-25 08:20:00,
2013-02-25 02:25:00,44.6,12.6,29.87,WNW,292,9.2,9.2,27,0.00,CLR,FEW,0.00,WeatherDisplay:10.37,2013-02-25 08:25:00,
2013-02-25 02:30:00,44.6,12.6,29.88,WNW,292,9.2,9.2,27,0.00,CLR,FEW,0.00,WeatherDisplay:10.37,2013-02-25 08:30:00,
2013-02-25 02:35:00,44.6,12.6,29.88,WNW,292,9.2,9.2,27,0.00,CLR,FEW,0.00,WeatherDisplay:10.37,2013-02-25 08:35:00,
2013-02-25 02:40:00,44.6,12.6,29.88,WNW,292,9.2,9.2,27,0.00,CLR,FEW,0.00,WeatherDisplay:10.37,2013-02-25 08:40:00,
2013-02-25 02:45:00,44.6,12.6,29.88,SW,225,12.7,12.7,27,0.00,CLR,FEW,0.00,WeatherDisplay:10.37,2013-02-25 08:45:00,
2013-02-25 02:50:00,44.8,12.8,29.88,South,180,8.1,8.1,27,0.00,CLR,FEW,0.00,WeatherDisplay:10.37,2013-02-25 08:50:00,
2013-02-25 02:55:00,45.0,12.1,29.88,South,180,10.4,10.4,26,0.00,CLR,FEW,0.00,WeatherDisplay:10.37,2013-02-25 08:55:00,
2013-02-25 03:00:00,45.1,12.2,29.88,West,270,15.0,15.0,26,0.00,CLR,FEW,0.00,WeatherDisplay:10.37,2013-02-25 09:00:00,
2013-02-25 03:05:00,45.1,12.2,29.88,West,270,15.0,15.0,26,0.00,CLR,FEW,0.00,WeatherDisplay:10.37,2013-02-25 09:05:00,
2013-02-25 03:10:00,45.3,10.6,29.88,SW,225,18.4,18.4,24,0.00,CLR,FEW,0.00,WeatherDisplay:10.37,2013-02-25 09:10:00,
2013-02-25 03:15:00,45.1,10.4,29.88,SW,225,15.0,15.0,24,0.00,CLR,FEW,0.00,WeatherDisplay:10.37,2013-02-25 09:15:00,
2013-02-25 03:20:00,45.0,9.3,29.88,North,0,17.3,17.3,23,0.00,CLR,FEW,0.00,WeatherDisplay:10.37,2013-02-25 09:20:00,
2013-02-25 03:25:00,45.0,9.3,29.88,SW,225,15.0,15.0,23,0.00,CLR,FEW,0.00,WeatherDisplay:10.37,2013-02-25 09:25:00,
2013-02-25 03:30:00,44.6,9.0,29.88,SW,225,24.2,24.2,23,0.00,CLR,FEW,0.00,WeatherDisplay:10.37,2013-02-25 09:30:00,
2013-02-25 03:35:00,44.2,8.7,29.88,SW,225,24.2,24.2,23,0.00,CLR,FEW,0.00,WeatherDisplay:10.37,2013-02-25 09:35:00,
2013-02-25 03:40:00,43.9,8.4,29.87,West,270,21.9,21.9,23,0.00,CLR,FEW,0.00,WeatherDisplay:10.37,2013-02-25 09:40:00,
2013-02-25 03:45:00,43.7,8.3,29.87,SW,225,17.3,17.3,23,0.00,CLR,FEW,0.00,WeatherDisplay:10.37,2013-02-25 09:45:00,
2013-02-25 03:50:00,43.5,8.1,29.88,East,90,19.6,19.6,23,0.00,CLR,FEW,0.00,WeatherDisplay:10.37,2013-02-25 09:50:00,
2013-02-25 03:55:00,43.2,7.8,29.88,NW,315,16.1,16.1,23,0.00,CLR,FEW,0.00,WeatherDisplay:10.37,2013-02-25 09:55:00,
2013-02-25 04:00:00,43.0,8.6,29.88,South,180,12.7,12.7,24,0.00,CLR,FEW,0.00,WeatherDisplay:10.37,2013-02-25 10:00:00,
2013-02-25 04:05:00,43.0,8.6,29.88,South,180,6.9,6.9,24,0.00,CLR,FEW,0.00,WeatherDisplay:10.37,2013-02-25 10:05:00,
2013-02-25 04:10:00,42.4,9.0,29.88,SW,225,10.4,10.4,25,0.00,CLR,FEW,0.00,WeatherDisplay:10.37,2013-02-25 10:10:00,
2013-02-25 04:15:00,42.4,9.0,29.88,WNW,292,12.7,12.7,25,0.00,CLR,FEW,0.00,WeatherDisplay:10.37,2013-02-25 10:15:00,
2013-02-25 04:20:00,42.3,8.9,29.88,SW,225,19.6,19.6,25,0.00,CLR,FEW,0.00,WeatherDisplay:10.37,2013-02-25 10:20:00,
2013-02-25 04:25:00,42.1,8.7,29.87,WSW,248,13.8,13.8,25,0.00,CLR,FEW,0.00,WeatherDisplay:10.37,2013-02-25 10:25:00,
2013-02-25 04:30:00,41.9,8.6,29.87,South,180,15.2,15.2,25,0.00,CLR,FEW,0.00,WeatherDisplay:10.37,2013-02-25 10:30:00,
2013-02-25 04:35:00,41.9,7.7,29.87,West,270,16.1,16.1,24,0.00,CLR,FEW,0.00,WeatherDisplay:10.37,2013-02-25 10:35:00,
2013-02-25 04:40:00,41.7,7.5,29.87,North,0,16.1,16.1,24,0.00,CLR,FEW,0.00,WeatherDisplay:10.37,2013-02-25 10:40:00,
2013-02-25 04:45:00,41.7,7.5,29.87,SW,225,20.7,20.7,24,0.00,CLR,FEW,0.00,WeatherDisplay:10.37,2013-02-25 10:45:00,
2013-02-25 04:50:00,41.5,7.4,29.88,SW,225,20.7,20.7,24,0.00,CLR,FEW,0.00,WeatherDisplay:10.37,2013-02-25 10:50:00,
2013-02-25 04:55:00,41.4,7.2,29.87,WSW,248,25.3,25.3,24,0.00,CLR,FEW,0.00,WeatherDisplay:10.37,2013-02-25 10:55:00,
2013-02-25 05:00:00,41.4,7.2,29.88,NW,315,19.6,19.6,24,0.00,CLR,FEW,0.00,WeatherDisplay:10.37,2013-02-25 11:00:00,
2013-02-25 05:05:00,41.4,7.2,29.87,NW,315,19.6,19.6,24,0.00,CLR,FEW,0.00,WeatherDisplay:10.37,2013-02-25 11:05:00,
2013-02-25 05:10:00,41.2,16.2,29.88,SW,225,19.6,19.6,36,0.00,CLR,FEW,0.00,WeatherDisplay:10.37,2013-02-25 11:10:00,
2013-02-25 05:15:00,41.4,22.1,29.88,SSW,202,28.8,28.8,46,0.00,CLR,FEW,0.00,WeatherDisplay:10.37,2013-02-25 11:15:00,
2013-02-25 05:20:00,41.4,26.8,29.88,SW,225,29.9,29.9,56,0.01,RA,FEW,0.01,WeatherDisplay:10.37,2013-02-25 11:20:00,
2013-02-25 05:25:00,41.4,28.1,29.88,NW,315,23.0,23.0,59,0.01,RA,FEW,0.01,WeatherDisplay:10.37,2013-02-25 11:25:00,
2013-02-25 05:30:00,41.4,28.1,29.88,NW,315,23.0,23.0,59,0.01,CLR,FEW,0.01,WeatherDisplay:10.37,2013-02-25 11:30:00,
2013-02-25 05:35:00,41.5,27.8,29.88,South,180,24.2,24.2,58,0.01,CLR,FEW,0.01,WeatherDisplay:10.37,2013-02-25 11:35:00,
2013-02-25 05:40:00,41.5,27.8,29.88,SW,225,27.6,27.6,58,0.01,CLR,FEW,0.01,WeatherDisplay:10.37,2013-02-25 11:40:00,
2013-02-25 05:45:00,41.4,28.1,29.89,WNW,292,24.2,24.2,59,0.01,CLR,FEW,0.01,WeatherDisplay:10.37,2013-02-25 11:45:00,
2013-02-25 05:50:00,41.2,28.7,29.89,NW,315,25.3,25.3,61,0.01,CLR,FEW,0.01,WeatherDisplay:10.37,2013-02-25 11:50:00,
2013-02-25 05:55:00,41.0,29.0,29.89,SW,225,23.0,23.0,62,0.01,CLR,FEW,0.01,WeatherDisplay:10.37,2013-02-25 11:55:00,
2013-02-25 06:00:00,40.8,29.2,29.89,SSW,202,21.9,21.9,63,0.01,CLR,FEW,0.01,WeatherDisplay:10.37,2013-02-25 12:00:00,
2013-02-25 06:05:00,40.8,29.2,29.89,SSW,202,21.9,21.9,63,0.01,CLR,FEW,0.01,WeatherDisplay:10.37,2013-02-25 12:05:00,
2013-02-25 06:10:00,40.5,29.2,29.89,NNW,338,23.0,23.0,64,0.01,CLR,FEW,0.01,WeatherDisplay:10.37,2013-02-25 12:10:00,
2013-02-25 06:15:00,40.5,29.2,29.90,SW,225,27.6,27.6,64,0.06,RA,FEW,0.06,WeatherDisplay:10.37,2013-02-25 12:15:00,
2013-02-25 06:20:00,40.5,29.2,29.90,SW,225,21.9,21.9,64,0.05,RA,FEW,0.06,WeatherDisplay:10.37,2013-02-25 12:20:00,
2013-02-25 06:25:00,40.5,29.2,29.90,SW,225,29.9,29.9,64,0.05,CLR,FEW,0.06,WeatherDisplay:10.37,2013-02-25 12:25:00,
2013-02-25 06:30:00,40.5,28.8,29.91,NW,315,23.0,23.0,63,0.05,CLR,FEW,0.06,WeatherDisplay:10.37,2013-02-25 12:30:00,
2013-02-25 06:35:00,40.5,28.8,29.91,NW,315,26.5,26.5,63,0.05,CLR,FEW,0.06,WeatherDisplay:10.37,2013-02-25 12:35:00,
2013-02-25 06:40:00,40.5,29.2,29.92,NW,315,21.9,21.9,64,0.05,CLR,FEW,0.06,WeatherDisplay:10.37,2013-02-25 12:40:00,
2013-02-25 06:45:00,40.3,29.4,29.92,NW,315,20.7,20.7,65,0.05,CLR,FEW,0.06,WeatherDisplay:10.37,2013-02-25 12:45:00,
2013-02-25 06:50:00,40.3,30.2,29.93,NW,315,20.7,20.7,67,0.05,CLR,FEW,0.06,WeatherDisplay:10.37,2013-02-25 12:50:00,
2013-02-25 06:56:00,39.7,30.8,29.93,WNW,292,13.8,13.8,70,0.05,CLR,FEW,0.06,WeatherDisplay:10.37,2013-02-25 12:56:00,
2013-02-25 07:01:00,39.4,30.4,29.94,SW,225,17.3,17.3,70,0.05,CLR,FEW,0.06,WeatherDisplay:10.37,2013-02-25 13:01:00,
2013-02-25 07:06:00,39.4,30.4,29.95,SW,225,15.0,15.0,70,0.05,CLR,FEW,0.06,WeatherDisplay:10.37,2013-02-25 13:06:00,
2013-02-25 07:11:00,39.2,28.8,29.95,SSW,202,17.3,17.3,66,0.05,CLR,FEW,0.06,WeatherDisplay:10.37,2013-02-25 13:11:00,
2013-02-25 07:16:00,39.0,29.0,29.96,WNW,292,18.4,18.4,67,0.00,CLR,FEW,0.06,WeatherDisplay:10.37,2013-02-25 13:16:00,
2013-02-25 07:21:00,39.0,28.6,29.97,South,180,12.7,12.7,66,0.00,CLR,FEW,0.06,WeatherDisplay:10.37,2013-02-25 13:21:00,
2013-02-25 07:26:00,39.0,28.6,29.96,SW,225,12.7,12.7,66,0.00,CLR,FEW,0.06,WeatherDisplay:10.37,2013-02-25 13:26:00,
2013-02-25 07:31:00,39.0,28.2,29.97,South,180,12.7,12.7,65,0.00,CLR,FEW,0.06,WeatherDisplay:10.37,2013-02-25 13:31:00,
2013-02-25 07:36:00,39.2,28.0,29.97,South,180,13.8,13.8,64,0.00,CLR,FEW,0.06,WeatherDisplay:10.37,2013-02-25 13:36:00,
2013-02-25 07:41:00,39.4,27.0,29.98,NW,315,13.8,13.8,61,0.00,CLR,FEW,0.06,WeatherDisplay:10.37,2013-02-25 13:41:00,
2013-02-25 07:46:00,39.6,26.0,29.99,North,0,15.0,15.0,58,0.00,CLR,FEW,0.06,WeatherDisplay:10.37,2013-02-25 13:46:00,
2013-02-25 07:51:00,39.4,25.4,29.99,WNW,292,13.8,13.8,57,0.00,CLR,FEW,0.06,WeatherDisplay:10.37,2013-02-25 13:51:00,
2013-02-25 07:56:00,39.4,25.4,29.99,NW,315,13.8,13.8,57,0.00,CLR,FEW,0.06,WeatherDisplay:10.37,2013-02-25 13:56:00,
2013-02-25 08:02:00,39.4,25.4,30.00,WNW,292,15.0,15.0,57,0.00,CLR,FEW,0.06,WeatherDisplay:10.37,2013-02-25 14:02:00,
2013-02-25 08:07:00,39.6,25.1,30.00,East,90,11.5,11.5,56,0.00,CLR,FEW,0.06,WeatherDisplay:10.37,2013-02-25 14:07:00,
2013-02-25 08:13:00,39.7,24.9,30.00,WNW,292,12.7,12.7,55,0.00,CLR,FEW,0.06,WeatherDisplay:10.37,2013-02-25 14:13:00,
2013-02-25 08:18:00,39.9,25.0,30.01,SW,225,10.4,10.4,55,0.00,CLR,FEW,0.06,WeatherDisplay:10.37,2013-02-25 14:18:00,
2013-02-25 08:23:00,40.1,25.2,30.00,NW,315,13.8,13.8,55,0.00,CLR,FEW,0.06,WeatherDisplay:10.37,2013-02-25 14:23:00,
2013-02-25 08:28:00,40.1,26.5,30.01,NNW,338,18.4,18.4,58,0.00,CLR,FEW,0.06,WeatherDisplay:10.37,2013-02-25 14:28:00,
2013-02-25 08:33:00,39.7,28.9,30.01,West,270,17.3,17.3,65,0.00,CLR,FEW,0.06,WeatherDisplay:10.37,2013-02-25 14:33:00,
2013-02-25 08:38:00,39.2,29.5,30.01,SSE,158,20.7,20.7,68,0.00,CLR,FEW,0.06,WeatherDisplay:10.37,2013-02-25 14:38:00,
2013-02-25 08:43:00,39.2,29.5,30.02,West,270,12.7,12.7,68,0.00,CLR,FEW,0.06,WeatherDisplay:10.37,2013-02-25 14:43:00,
2013-02-25 08:48:00,39.6,29.5,30.02,SW,225,19.6,19.6,67,0.00,CLR,FEW,0.06,WeatherDisplay:10.37,2013-02-25 14:48:00,
2013-02-25 08:53:00,39.7,28.5,30.03,NW,315,17.3,17.3,64,0.00,CLR,FEW,0.06,WeatherDisplay:10.37,2013-02-25 14:53:00,
2013-02-25 08:58:00,41.0,28.2,30.02,SW,225,15.0,15.0,60,0.00,CLR,FEW,0.06,WeatherDisplay:10.37,2013-02-25 14:58:00,
2013-02-25 09:03:00,41.7,27.2,30.03,NW,315,13.8,13.8,56,0.00,CLR,FEW,0.06,WeatherDisplay:10.37,2013-02-25 15:03:00,
2013-02-25 09:08:00,43.0,25.6,30.03,WNW,292,13.8,13.8,50,0.00,CLR,FEW,0.06,WeatherDisplay:10.37,2013-02-25 15:08:00,
2013-02-25 09:13:00,43.7,24.2,30.03,NW,315,17.3,17.3,46,0.00,CLR,FEW,0.06,WeatherDisplay:10.37,2013-02-25 15:13:00,
2013-02-25 09:18:00,43.9,25.4,30.03,WNW,292,15.0,15.0,48,0.00,CLR,FEW,0.06,WeatherDisplay:10.37,2013-02-25 15:18:00,
2013-02-25 09:23:00,42.4,25.1,30.03,NW,315,16.1,16.1,50,0.00,CLR,FEW,0.06,WeatherDisplay:10.37,2013-02-25 15:23:00,
2013-02-25 09:28:00,42.8,26.8,30.04,NW,315,18.4,18.4,53,0.00,CLR,FEW,0.06,WeatherDisplay:10.37,2013-02-25 15:28:00,
2013-02-25 09:33:00,43.7,26.7,30.04,ESE,112,16.1,16.1,51,0.00,CLR,FEW,0.06,WeatherDisplay:10.37,2013-02-25 15:33:00,
2013-02-25 09:38:00,43.5,27.0,30.03,SW,225,19.6,19.6,52,0.00,CLR,FEW,0.06,WeatherDisplay:10.37,2013-02-25 15:38:00,
2013-02-25 09:43:00,42.3,26.8,30.04,SW,225,17.3,17.3,54,0.00,CLR,FEW,0.06,WeatherDisplay:10.37,2013-02-25 15:43:00,
2013-02-25 09:48:00,42.1,26.6,30.04,North,0,12.7,12.7,54,0.00,CLR,FEW,0.06,WeatherDisplay:10.37,2013-02-25 15:48:00,
2013-02-25 09:53:00,42.1,25.7,30.05,SW,225,15.9,15.9,52,0.00,CLR,FEW,0.06,WeatherDisplay:10.37,2013-02-25 15:53:00,
2013-02-25 09:58:00,42.6,25.7,30.04,East,90,15.0,15.0,51,0.00,CLR,FEW,0.06,WeatherDisplay:10.37,2013-02-25 15:58:00,
2013-02-25 10:03:00,43.5,25.6,30.04,SW,225,17.3,17.3,49,0.00,CLR,FEW,0.06,WeatherDisplay:10.37,2013-02-25 16:03:00,
2013-02-25 10:08:00,44.6,25.6,30.05,North,0,17.3,17.3,47,0.00,CLR,FEW,0.06,WeatherDisplay:10.37,2013-02-25 16:08:00,
2013-02-25 10:13:00,44.6,25.6,30.05,NW,315,13.8,13.8,47,0.00,CLR,FEW,0.06,WeatherDisplay:10.37,2013-02-25 16:13:00,
2013-02-25 10:18:00,45.3,24.1,30.05,SE,135,17.3,17.3,43,0.00,CLR,FEW,0.06,WeatherDisplay:10.37,2013-02-25 16:18:00,
2013-02-25 10:23:00,45.9,24.6,30.05,SW,225,15.0,15.0,43,0.00,CLR,FEW,0.06,WeatherDisplay:10.37,2013-02-25 16:23:00,
2013-02-25 10:28:00,47.3,23.6,30.05,SE,135,12.7,12.7,39,0.00,CLR,FEW,0.06,WeatherDisplay:10.37,2013-02-25 16:28:00,
2013-02-25 10:33:00,48.4,22.0,30.05,NW,315,21.9,21.9,35,0.00,CLR,FEW,0.06,WeatherDisplay:10.37,2013-02-25 16:33:00,
2013-02-25 10:38:00,48.4,22.0,30.05,NNW,338,18.4,18.4,35,0.00,CLR,FEW,0.06,WeatherDisplay:10.37,2013-02-25 16:38:00,
2013-02-25 10:43:00,48.6,22.8,30.05,South,180,15.0,15.0,36,0.00,CLR,FEW,0.06,WeatherDisplay:10.37,2013-02-25 16:43:00,
2013-02-25 10:48:00,49.3,21.4,30.05,East,90,21.9,21.9,33,0.00,CLR,FEW,0.08,WeatherDisplay:10.37,2013-02-25 16:48:00,
2013-02-25 10:53:00,49.3,22.1,30.05,SW,225,19.6,19.6,34,0.02,RA,FEW,0.08,WeatherDisplay:10.37,2013-02-25 16:53:00,
2013-02-25 10:58:00,49.8,21.1,30.05,NE,45,18.4,18.4,32,0.02,RA,FEW,0.08,WeatherDisplay:10.37,2013-02-25 16:58:00,
2013-02-25 11:03:00,49.6,20.9,30.05,NE,45,18.4,18.4,32,0.02,CLR,FEW,0.08,WeatherDisplay:10.37,2013-02-25 17:03:00,
2013-02-25 11:08:00,50.2,20.7,30.05,South,180,23.0,23.0,31,0.02,CLR,FEW,0.08,WeatherDisplay:10.37,2013-02-25 17:08:00,
2013-02-25 11:13:00,50.2,19.9,30.06,NW,315,18.4,18.4,30,0.02,CLR,FEW,0.08,WeatherDisplay:10.37,2013-02-25 17:13:00,
2013-02-25 11:18:00,50.0,18.9,30.06,SE,135,18.4,18.4,29,0.02,CLR,FEW,0.08,WeatherDisplay:10.37,2013-02-25 17:18:00,
2013-02-25 11:23:00,50.5,18.6,30.06,North,0,17.3,17.3,28,0.02,CLR,FEW,0.08,WeatherDisplay:10.37,2013-02-25 17:23:00,
2013-02-25 11:28:00,50.5,18.6,30.06,East,90,20.7,20.7,28,0.02,CLR,FEW,0.08,WeatherDisplay:10.37,2013-02-25 17:28:00,
2013-02-25 11:33:00,50.2,17.4,30.06,West,270,16.1,16.1,27,0.02,CLR,FEW,0.08,WeatherDisplay:10.37,2013-02-25 17:33:00,
2013-02-25 11:38:00,48.7,17.9,30.07,NW,315,19.6,19.6,29,0.02,CLR,FEW,0.08,WeatherDisplay:10.37,2013-02-25 17:38:00,
2013-02-25 11:59:00,47.1,22.8,30.08,NE,45,18.4,18.4,38,0.02,CLR,FEW,0.08,WeatherDisplay:10.37,2013-02-25 17:59:00,
2013-02-25 12:04:00,47.1,22.8,30.08,NE,45,16.1,16.1,38,0.00,CLR,FEW,0.08,WeatherDisplay:10.37,2013-02-25 18:04:00,
2013-02-25 12:09:00,47.7,22.0,30.08,East,90,16.1,16.1,36,0.00,CLR,FEW,0.08,WeatherDisplay:10.37,2013-02-25 18:09:00,
2013-02-25 12:14:00,49.5,20.8,30.06,SE,135,17.3,17.3,32,0.00,CLR,FEW,0.08,WeatherDisplay:10.37,2013-02-25 18:14:00,
2013-02-25 12:19:00,51.6,19.5,30.06,NE,45,16.1,16.1,28,0.00,CLR,FEW,0.08,WeatherDisplay:10.37,2013-02-25 18:19:00,
2013-02-25 12:24:00,52.3,17.5,30.06,South,180,12.7,12.7,25,0.00,CLR,FEW,0.08,WeatherDisplay:10.37,2013-02-25 18:24:00,
2013-02-25 12:29:00,52.7,15.9,30.06,South,180,10.4,10.4,23,0.00,CLR,FEW,0.08,WeatherDisplay:10.37,2013-02-25 18:29:00,
2013-02-25 12:34:00,54.0,14.9,30.05,NW,315,16.1,16.1,21,0.00,CLR,FEW,0.08,WeatherDisplay:10.37,2013-02-25 18:34:00,
2013-02-25 12:39:00,54.1,12.7,30.04,South,180,13.8,13.8,19,0.00,CLR,FEW,0.08,WeatherDisplay:10.37,2013-02-25 18:39:00,
2013-02-25 12:44:00,54.9,12.1,30.03,WNW,292,15.0,15.0,18,0.00,CLR,FEW,0.08,WeatherDisplay:10.37,2013-02-25 18:44:00,
2013-02-25 12:49:00,55.2,9.7,30.03,WNW,292,17.3,17.3,16,0.00,CLR,FEW,0.08,WeatherDisplay:10.37,2013-02-25 18:49:00,
2013-02-25 12:54:00,55.6,8.6,30.03,NE,45,16.1,16.1,15,0.00,CLR,FEW,0.08,WeatherDisplay:10.37,2013-02-25 18:54:00,
2013-02-25 12:59:00,55.9,7.3,30.03,NE,45,15.0,15.0,14,0.00,CLR,FEW,0.08,WeatherDisplay:10.37,2013-02-25 18:59:00,
2013-02-25 13:04:00,55.9,7.3,30.02,NE,45,9.2,9.2,14,0.00,CLR,FEW,0.08,WeatherDisplay:10.37,2013-02-25 19:04:00,
2013-02-25 13:09:00,56.8,4.7,30.02,NE,45,13.8,13.8,12,0.00,CLR,FEW,0.08,WeatherDisplay:10.37,2013-02-25 19:09:00,
2013-02-25 13:14:00,57.6,5.2,30.01,West,270,13.8,13.8,12,0.00,CLR,FEW,0.08,WeatherDisplay:10.37,2013-02-25 19:14:00,
2013-02-25 13:19:00,57.4,5.1,30.01,SW,225,13.8,13.8,12,0.00,CLR,FEW,0.08,WeatherDisplay:10.37,2013-02-25 19:19:00,
2013-02-25 13:24:00,58.1,1.7,30.01,NE,45,19.6,19.6,10,0.00,CLR,FEW,0.08,WeatherDisplay:10.37,2013-02-25 19:24:00,
2013-02-25 13:29:00,57.4,3.2,30.00,NNE,22,10.4,10.4,11,0.00,CLR,FEW,0.08,WeatherDisplay:10.37,2013-02-25 19:29:00,
2013-02-25 13:34:00,58.1,1.7,30.00,SW,225,11.5,11.5,10,0.00,CLR,FEW,0.08,WeatherDisplay:10.37,2013-02-25 19:34:00,
2013-02-25 13:39:00,58.5,2.0,30.00,North,0,17.3,17.3,10,0.00,CLR,FEW,0.08,WeatherDisplay:10.37,2013-02-25 19:39:00,
2013-02-25 13:44:00,58.5,2.0,30.00,NW,315,13.8,13.8,10,0.00,CLR,FEW,0.08,WeatherDisplay:10.37,2013-02-25 19:44:00,
2013-02-25 13:49:00,58.5,2.0,30.00,NW,315,13.8,13.8,10,0.00,CLR,FEW,0.08,WeatherDisplay:10.37,2013-02-25 19:49:00,
2013-02-25 13:54:00,59.4,2.7,30.00,South,180,11.5,11.5,10,0.00,CLR,FEW,0.08,WeatherDisplay:10.37,2013-02-25 19:54:00,
2013-02-25 13:59:00,58.5,2.0,29.99,North,0,12.7,12.7,10,0.00,CLR,FEW,0.08,WeatherDisplay:10.37,2013-02-25 19:59:00,
2013-02-25 14:04:00,58.5,2.0,29.99,NW,315,15.0,15.0,10,0.00,CLR,FEW,0.08,WeatherDisplay:10.37,2013-02-25 20:04:00,
2013-02-25 14:09:00,58.8,2.3,29.99,East,90,15.0,15.0,10,0.00,CLR,FEW,0.08,WeatherDisplay:10.37,2013-02-25 20:09:00,
2013-02-25 14:14:00,59.0,2.4,29.99,East,90,12.7,12.7,10,0.00,CLR,FEW,0.08,WeatherDisplay:10.37,2013-02-25 20:14:00,
2013-02-25 14:19:00,58.8,2.3,29.98,NW,315,13.8,13.8,10,0.00,CLR,FEW,0.08,WeatherDisplay:10.37,2013-02-25 20:19:00,
2013-02-25 14:24:00,58.6,2.1,29.98,SE,135,12.7,12.7,10,0.00,CLR,FEW,0.08,WeatherDisplay:10.37,2013-02-25 20:24:00,
2013-02-25 14:29:00,58.5,2.0,29.98,South,180,12.7,12.7,10,0.00,CLR,FEW,0.08,WeatherDisplay:10.37,2013-02-25 20:29:00,
2013-02-25 14:34:00,59.4,2.7,29.98,SW,225,10.4,10.4,10,0.00,CLR,FEW,0.08,WeatherDisplay:10.37,2013-02-25 20:34:00,
2013-02-25 14:39:00,59.5,2.8,29.97,NW,315,11.5,11.5,10,0.00,CLR,FEW,0.08,WeatherDisplay:10.37,2013-02-25 20:39:00,
2013-02-25 14:44:00,59.5,2.8,29.98,NW,315,10.4,10.4,10,0.00,CLR,FEW,0.08,WeatherDisplay:10.37,2013-02-25 20:44:00,
2013-02-25 14:49:00,59.5,2.8,29.98,NW,315,12.7,12.7,10,0.00,CLR,FEW,0.08,WeatherDisplay:10.37,2013-02-25 20:49:00,
2013-02-25 14:54:00,59.4,2.7,29.99,WNW,292,15.2,15.2,10,0.00,CLR,FEW,0.08,WeatherDisplay:10.37,2013-02-25 20:54:00,
2013-02-25 14:59:00,59.2,2.5,29.99,North,0,10.4,10.4,10,0.00,CLR,FEW,0.08,WeatherDisplay:10.37,2013-02-25 20:59:00,
2013-02-25 15:04:00,59.2,2.5,29.98,NW,315,17.3,17.3,10,0.00,CLR,FEW,0.08,WeatherDisplay:10.37,2013-02-25 21:04:00,
2013-02-25 15:09:00,59.7,2.9,29.98,South,180,17.3,17.3,10,0.00,CLR,FEW,0.08,WeatherDisplay:10.37,2013-02-25 21:09:00,
2013-02-25 15:14:00,59.9,3.1,29.98,SW,225,12.7,12.7,10,0.00,CLR,FEW,0.08,WeatherDisplay:10.37,2013-02-25 21:14:00,
2013-02-25 15:19:00,60.1,3.2,29.98,West,270,11.5,11.5,10,0.00,CLR,FEW,0.08,WeatherDisplay:10.37,2013-02-25 21:19:00,
2013-02-25 15:24:00,60.3,3.4,29.98,SW,225,10.4,10.4,10,0.00,CLR,FEW,0.08,WeatherDisplay:10.37,2013-02-25 21:24:00,
2013-02-25 15:29:00,59.4,2.7,29.99,SW,225,13.8,13.8,10,0.00,CLR,FEW,0.08,WeatherDisplay:10.37,2013-02-25 21:29:00,
2013-02-25 15:34:00,59.5,2.8,29.98,SW,225,12.7,12.7,10,0.00,CLR,FEW,0.08,WeatherDisplay:10.37,2013-02-25 21:34:00,
2013-02-25 15:39:00,59.7,2.9,29.98,North,0,15.0,15.0,10,0.00,CLR,FEW,0.08,WeatherDisplay:10.37,2013-02-25 21:39:00,
2013-02-25 15:44:00,60.1,3.2,29.97,West,270,8.1,8.1,10,0.00,CLR,FEW,0.08,WeatherDisplay:10.37,2013-02-25 21:44:00,
2013-02-25 15:49:00,60.3,3.4,29.97,SE,135,10.4,10.4,10,0.00,CLR,FEW,0.08,WeatherDisplay:10.37,2013-02-25 21:49:00,
2013-02-25 15:54:00,60.3,3.4,29.98,NW,315,11.5,11.5,10,0.00,CLR,FEW,0.08,WeatherDisplay:10.37,2013-02-25 21:54:00,
2013-02-25 15:59:00,60.1,3.2,29.98,NW,315,10.4,10.4,10,0.00,CLR,FEW,0.08,WeatherDisplay:10.37,2013-02-25 21:59:00,
2013-02-25 16:04:00,60.3,3.4,29.99,NW,315,11.5,11.5,10,0.00,CLR,FEW,0.08,WeatherDisplay:10.37,2013-02-25 22:04:00,
2013-02-25 16:09:00,60.3,3.4,29.98,NW,315,11.5,11.5,10,0.00,CLR,FEW,0.08,WeatherDisplay:10.37,2013-02-25 22:09:00,
2013-02-25 16:14:00,60.1,3.2,29.97,NNW,338,12.7,12.7,10,0.00,CLR,FEW,0.08,WeatherDisplay:10.37,2013-02-25 22:14:00,
2013-02-25 16:19:00,60.1,3.2,29.97,South,180,10.4,10.4,10,0.00,CLR,FEW,0.08,WeatherDisplay:10.37,2013-02-25 22:19:00,
2013-02-25 16:24:00,60.1,3.2,29.97,North,0,10.4,10.4,10,0.00,CLR,FEW,0.08,WeatherDisplay:10.37,2013-02-25 22:24:00,
2013-02-25 16:29:00,60.1,3.2,29.96,NE,45,8.1,8.1,10,0.00,CLR,FEW,0.08,WeatherDisplay:10.37,2013-02-25 22:29:00,
2013-02-25 16:34:00,60.3,3.4,29.96,NW,315,10.4,10.4,10,0.00,CLR,FEW,0.08,WeatherDisplay:10.37,2013-02-25 22:34:00,
2013-02-25 16:39:00,60.3,3.4,29.95,NE,45,11.5,11.5,10,0.00,CLR,FEW,0.08,WeatherDisplay:10.37,2013-02-25 22:39:00,
2013-02-25 16:44:00,60.3,3.4,29.95,SE,135,10.4,10.4,10,0.00,CLR,FEW,0.08,WeatherDisplay:10.37,2013-02-25 22:44:00,
2013-02-25 16:49:00,60.1,3.2,29.95,East,90,8.1,8.1,10,0.00,CLR,FEW,0.08,WeatherDisplay:10.37,2013-02-25 22:49:00,
2013-02-25 16:54:00,60.1,3.2,29.95,WNW,292,9.2,9.2,10,0.00,CLR,FEW,0.08,WeatherDisplay:10.37,2013-02-25 22:54:00,
2013-02-25 16:59:00,60.1,3.2,29.95,WNW,292,10.4,10.4,10,0.00,CLR,FEW,0.08,WeatherDisplay:10.37,2013-02-25 22:59:00,
2013-02-25 17:04:00,60.1,3.2,29.95,East,90,6.9,6.9,10,0.00,CLR,FEW,0.08,WeatherDisplay:10.37,2013-02-25 23:04:00,
2013-02-25 17:09:00,60.3,3.4,29.94,West,270,11.5,11.5,10,0.00,CLR,FEW,0.08,WeatherDisplay:10.37,2013-02-25 23:09:00,
2013-02-25 17:14:00,60.4,3.5,29.95,SSW,202,8.1,8.1,10,0.00,CLR,FEW,0.08,WeatherDisplay:10.37,2013-02-25 23:14:00,
2013-02-25 17:19:00,60.1,3.2,29.94,South,180,10.4,10.4,10,0.00,CLR,FEW,0.08,WeatherDisplay:10.37,2013-02-25 23:19:00,
2013-02-25 17:24:00,59.5,2.8,29.94,ENE,68,8.1,8.1,10,0.00,CLR,FEW,0.08,WeatherDisplay:10.37,2013-02-25 23:24:00,
2013-02-25 17:29:00,59.7,2.9,29.94,South,180,10.4,10.4,10,0.00,CLR,FEW,0.08,WeatherDisplay:10.37,2013-02-25 23:29:00,
2013-02-25 17:34:00,59.4,2.7,29.95,NE,45,13.8,13.8,10,0.00,CLR,FEW,0.08,WeatherDisplay:10.37,2013-02-25 23:34:00,
2013-02-25 17:39:00,58.8,2.3,29.94,South,180,10.4,10.4,10,0.00,CLR,FEW,0.08,WeatherDisplay:10.37,2013-02-25 23:39:00,
2013-02-25 17:44:00,58.8,2.3,29.95,NW,315,8.3,8.3,10,0.00,CLR,FEW,0.08,WeatherDisplay:10.37,2013-02-25 23:44:00,
2013-02-25 17:49:00,58.5,2.0,29.95,NE,45,9.2,9.2,10,0.00,CLR,FEW,0.08,WeatherDisplay:10.37,2013-02-25 23:49:00,
2013-02-25 17:54:00,58.1,1.7,29.94,SW,225,9.2,9.2,10,0.00,CLR,FEW,0.08,WeatherDisplay:10.37,2013-02-25 23:54:00,
2013-02-25 17:59:00,57.6,1.3,29.95,NW,315,9.2,9.2,10,0.00,CLR,FEW,0.08,WeatherDisplay:10.37,2013-02-25 23:59:00,
2013-02-25 18:04:00,57.7,1.4,29.95,SW,225,5.8,5.8,10,0.00,CLR,FEW,0.08,WeatherDisplay:10.37,2013-02-26 00:04:00,
2013-02-25 18:09:00,56.7,0.6,29.95,NW,315,10.4,10.4,10,0.00,CLR,FEW,0.08,WeatherDisplay:10.37,2013-02-26 00:09:00,
2013-02-25 18:14:00,56.1,0.2,29.95,SW,225,8.1,8.1,10,0.00,CLR,FEW,0.08,WeatherDisplay:10.37,2013-02-26 00:14:00,
2013-02-25 18:19:00,55.2,-0.5,29.95,NE,45,10.4,10.4,10,0.00,CLR,FEW,0.08,WeatherDisplay:10.37,2013-02-26 00:19:00,
2013-02-25 18:24:00,54.5,-1.1,29.95,North,0,8.1,8.1,10,0.00,CLR,FEW,0.08,WeatherDisplay:10.37,2013-02-26 00:24:00,
2013-02-25 18:29:00,53.6,-1.8,29.95,North,0,5.8,5.8,10,0.00,CLR,FEW,0.08,WeatherDisplay:10.37,2013-02-26 00:29:00,
2013-02-25 18:34:00,53.1,-2.2,29.95,NW,315,8.1,8.1,10,0.00,CLR,FEW,0.08,WeatherDisplay:10.37,2013-02-26 00:34:00,
2013-02-25 18:39:00,52.2,-0.9,29.96,East,90,5.8,5.8,11,0.00,CLR,FEW,0.08,WeatherDisplay:10.37,2013-02-26 00:39:00,
2013-02-25 18:44:00,51.4,0.4,29.96,NE,45,5.8,5.8,12,0.00,CLR,FEW,0.08,WeatherDisplay:10.37,2013-02-26 00:44:00,
2013-02-25 18:49:00,50.9,1.7,29.96,North,0,5.8,5.8,13,0.00,CLR,FEW,0.08,WeatherDisplay:10.37,2013-02-26 00:49:00,
2013-02-25 18:54:00,50.4,2.9,29.96,NW,315,6.9,6.9,14,0.00,CLR,FEW,0.08,WeatherDisplay:10.37,2013-02-26 00:54:00,
2013-02-25 18:59:00,50.2,4.2,29.97,ESE,112,9.2,9.2,15,0.00,CLR,FEW,0.08,WeatherDisplay:10.37,2013-02-26 00:59:00,
2013-02-25 19:04:00,50.0,4.1,29.97,NW,315,5.8,5.8,15,0.00,CLR,FEW,0.08,WeatherDisplay:10.37,2013-02-26 01:04:00,
2013-02-25 19:09:00,49.6,5.2,29.97,SW,225,5.8,5.8,16,0.00,CLR,FEW,0.08,WeatherDisplay:10.37,2013-02-26 01:09:00,
2013-02-25 19:14:00,49.5,5.0,29.97,SE,135,5.8,5.8,16,0.00,CLR,FEW,0.08,WeatherDisplay:10.37,2013-02-26 01:14:00,
2013-02-25 19:19:00,49.3,4.9,29.97,North,0,6.9,6.9,16,0.00,CLR,FEW,0.08,WeatherDisplay:10.37,2013-02-26 01:19:00,
2013-02-25 19:24:00,48.9,5.9,29.98,South,180,6.9,6.9,17,0.00,CLR,FEW,0.08,WeatherDisplay:10.37,2013-02-26 01:24:00,
2013-02-25 19:29:00,48.7,7.0,29.98,North,0,5.8,5.8,18,0.00,CLR,FEW,0.08,WeatherDisplay:10.37,2013-02-26 01:29:00,
2013-02-25 19:34:00,48.2,6.6,29.98,SE,135,5.8,5.8,18,0.00,CLR,FEW,0.08,WeatherDisplay:10.37,2013-02-26 01:34:00,
2013-02-25 19:39:00,48.0,7.6,29.99,NE,45,4.6,4.6,19,0.00,CLR,FEW,0.08,WeatherDisplay:10.37,2013-02-26 01:39:00,
2013-02-25 19:44:00,47.7,8.5,29.98,NE,45,5.8,5.8,20,0.00,CLR,FEW,0.08,WeatherDisplay:10.37,2013-02-26 01:44:00,
2013-02-25 19:49:00,47.3,8.2,29.99,North,0,5.8,5.8,20,0.00,CLR,FEW,0.08,WeatherDisplay:10.37,2013-02-26 01:49:00,
2013-02-25 19:54:00,46.9,6.7,29.99,South,180,5.8,5.8,19,0.00,CLR,FEW,0.08,WeatherDisplay:10.37,2013-02-26 01:54:00,
2013-02-25 19:59:00,46.4,6.3,29.99,SE,135,3.5,3.5,19,0.00,CLR,FEW,0.08,WeatherDisplay:10.37,2013-02-26 01:59:00,
2013-02-25 20:04:00,46.4,6.3,29.99,SE,135,3.5,3.5,19,0.00,CLR,FEW,0.08,WeatherDisplay:10.37,2013-02-26 02:04:00,
2013-02-25 20:09:00,45.3,4.2,29.99,West,270,2.3,2.3,18,0.00,CLR,FEW,0.08,WeatherDisplay:10.37,2013-02-26 02:09:00,
2013-02-25 20:14:00,44.4,4.7,30.00,North,0,1.1,0.0,19,0.00,CLR,FEW,0.08,WeatherDisplay:10.37,2013-02-26 02:14:00,
2013-02-25 20:19:00,43.9,4.2,30.00,NW,315,1.1,0.0,19,0.00,CLR,FEW,0.08,WeatherDisplay:10.37,2013-02-26 02:19:00,
2013-02-25 20:24:00,43.2,4.7,30.00,North,0,1.1,0.0,20,0.00,CLR,FEW,0.08,WeatherDisplay:10.37,2013-02-26 02:24:00,
2013-02-25 20:29:00,42.4,5.2,30.00,NE,45,3.5,3.5,21,0.00,CLR,FEW,0.08,WeatherDisplay:10.37,2013-02-26 02:29:00,
2013-02-25 20:34:00,41.9,5.8,30.00,West,270,2.3,0.0,22,0.00,CLR,FEW,0.08,WeatherDisplay:10.37,2013-02-26 02:34:00,
2013-02-25 20:39:00,41.4,5.3,30.00,North,0,3.8,3.8,22,0.00,CLR,FEW,0.08,WeatherDisplay:10.37,2013-02-26 02:39:00,
2013-02-25 20:44:00,41.4,5.3,30.00,North,0,1.1,1.1,22,0.00,CLR,FEW,0.08,WeatherDisplay:10.37,2013-02-26 02:44:00,
2013-02-25 20:49:00,41.4,5.3,30.00,North,0,1.1,0.0,22,0.00,CLR,FEW,0.08,WeatherDisplay:10.37,2013-02-26 02:49:00,
2013-02-25 20:54:00,41.0,5.0,30.00,North,0,1.1,0.0,22,0.00,CLR,FEW,0.08,WeatherDisplay:10.37,2013-02-26 02:54:00,
2013-02-25 20:59:00,40.5,4.5,30.00,NW,315,1.1,0.0,22,0.00,CLR,FEW,0.08,WeatherDisplay:10.37,2013-02-26 02:59:00,
2013-02-25 21:04:00,40.3,4.4,30.00,West,270,1.1,0.0,22,0.00,CLR,FEW,0.08,WeatherDisplay:10.37,2013-02-26 03:04:00,
2013-02-25 21:09:00,39.6,3.8,30.01,NW,315,1.1,0.0,22,0.00,CLR,FEW,0.08,WeatherDisplay:10.37,2013-02-26 03:09:00,
2013-02-25 21:14:00,38.8,4.1,30.01,SW,225,0.0,0.0,23,0.00,CLR,FEW,0.08,WeatherDisplay:10.37,2013-02-26 03:14:00,
2013-02-25 21:19:00,38.3,4.6,30.02,West,270,0.0,0.0,24,0.00,CLR,FEW,0.08,WeatherDisplay:10.37,2013-02-26 03:19:00,
2013-02-25 21:24:00,37.6,4.9,30.01,South,180,0.0,0.0,25,0.00,CLR,FEW,0.08,WeatherDisplay:10.37,2013-02-26 03:24:00,
2013-02-25 21:29:00,37.0,4.4,30.02,South,180,0.0,0.0,25,0.00,CLR,FEW,0.08,WeatherDisplay:10.37,2013-02-26 03:29:00,
2013-02-25 21:34:00,36.3,5.5,30.02,South,180,1.1,0.0,27,0.00,CLR,FEW,0.08,WeatherDisplay:10.37,2013-02-26 03:34:00,
2013-02-25 21:39:00,35.8,6.6,30.02,West,270,1.1,0.0,29,0.00,CLR,FEW,0.08,WeatherDisplay:10.37,2013-02-26 03:39:00,
2013-02-25 21:44:00,35.4,7.0,30.02,West,270,1.1,0.0,30,0.00,CLR,FEW,0.08,WeatherDisplay:10.37,2013-02-26 03:44:00,
2013-02-25 21:49:00,35.2,7.6,30.02,North,0,0.0,0.0,31,0.00,CLR,FEW,0.08,WeatherDisplay:10.37,2013-02-26 03:49:00,
2013-02-25 21:54:00,34.7,7.1,30.02,North,0,0.0,0.0,31,0.00,CLR,FEW,0.08,WeatherDisplay:10.37,2013-02-26 03:54:00,
2013-02-25 21:59:00,34.2,6.6,30.02,SW,225,0.0,0.0,31,0.00,CLR,FEW,0.08,WeatherDisplay:10.37,2013-02-26 03:59:00,
2013-02-25 22:04:00,34.0,6.5,30.03,SW,225,0.0,0.0,31,0.00,CLR,FEW,0.08,WeatherDisplay:10.37,2013-02-26 04:04:00,
2013-02-25 22:09:00,33.1,6.4,30.03,SW,225,0.0,0.0,32,0.00,CLR,FEW,0.08,WeatherDisplay:10.37,2013-02-26 04:09:00,
2013-02-25 22:14:00,32.9,6.9,30.03,South,180,0.0,0.0,33,0.00,CLR,FEW,0.08,WeatherDisplay:10.37,2013-02-26 04:14:00,
2013-02-25 22:19:00,32.5,6.6,30.03,South,180,0.0,0.0,33,0.00,CLR,FEW,0.08,WeatherDisplay:10.37,2013-02-26 04:19:00,
2013-02-25 22:24:00,32.2,8.2,30.04,South,180,1.1,0.0,36,0.00,CLR,FEW,0.08,WeatherDisplay:10.37,2013-02-26 04:24:00,
2013-02-25 22:29:00,32.5,8.5,30.04,WSW,248,2.3,2.3,36,0.00,CLR,FEW,0.08,WeatherDisplay:10.37,2013-02-26 04:29:00,
2013-02-25 22:34:00,32.5,7.9,30.05,West,270,1.1,0.0,35,0.00,CLR,FEW,0.08,WeatherDisplay:10.37,2013-02-26 04:34:00,
2013-02-25 22:39:00,32.7,8.7,30.05,SW,225,1.1,0.0,36,0.00,CLR,FEW,0.08,WeatherDisplay:10.37,2013-02-26 04:39:00,
2013-02-25 22:44:00,32.7,8.0,30.05,West,270,1.1,0.0,35,0.00,CLR,FEW,0.08,WeatherDisplay:10.37,2013-02-26 04:44:00,
2013-02-25 22:49:00,32.5,7.9,30.05,West,270,1.1,0.0,35,0.00,CLR,FEW,0.08,WeatherDisplay:10.37,2013-02-26 04:49:00,
2013-02-25 22:54:00,32.5,7.9,30.05,NW,315,1.1,0.0,35,0.00,CLR,FEW,0.08,WeatherDisplay:10.37,2013-02-26 04:54:00,
2013-02-25 22:59:00,32.4,8.3,30.04,NW,315,1.1,0.0,36,0.00,CLR,FEW,0.08,WeatherDisplay:10.37,2013-02-26 04:59:00,
2013-02-25 23:00:00,32.4,8.3,30.05,NW,318,0.0,0.0,36,0.00,CLR,FEW,0.08,WeatherDisplay:10.37,2013-02-26 05:00:00,
2013-02-25 23:05:00,32.4,8.3,30.05,NW,315,0.0,0.0,36,0.00,CLR,FEW,0.08,WeatherDisplay:10.37,2013-02-26 05:05:00,
2013-02-25 23:10:00,31.8,7.2,30.05,NW,315,0.0,0.0,35,0.00,CLR,FEW,0.08,WeatherDisplay:10.37,2013-02-26 05:10:00,
2013-02-25 23:15:00,31.3,7.4,30.05,NW,315,0.0,0.0,36,0.00,CLR,FEW,0.08,WeatherDisplay:10.37,2013-02-26 05:15:00,
2013-02-25 23:20:00,30.7,7.5,30.05,NW,315,0.0,0.0,37,0.00,CLR,FEW,0.08,WeatherDisplay:10.37,2013-02-26 05:20:00,
2013-02-25 23:25:00,30.4,8.3,30.04,West,270,1.1,0.0,39,0.00,CLR,FEW,0.08,WeatherDisplay:10.37,2013-02-26 05:25:00,
2013-02-25 23:30:00,30.2,8.7,30.04,SW,225,1.1,0.0,40,0.00,CLR,FEW,0.08,WeatherDisplay:10.37,2013-02-26 05:30:00,
2013-02-25 23:35:00,30.2,9.3,30.04,West,270,1.1,0.0,41,0.00,CLR,FEW,0.08,WeatherDisplay:10.37,2013-02-26 05:35:00,
2013-02-25 23:40:00,30.4,9.5,30.04,West,270,0.0,0.0,41,0.00,CLR,FEW,0.08,WeatherDisplay:10.37,2013-02-26 05:40:00,
2013-02-25 23:45:00,31.1,10.6,30.03,NW,315,0.0,0.0,42,0.00,CLR,FEW,0.08,WeatherDisplay:10.37,2013-02-26 05:45:00,
2013-02-25 23:50:00,31.5,10.4,30.04,NW,315,0.0,0.0,41,0.00,CLR,FEW,0.08,WeatherDisplay:10.37,2013-02-26 05:50:00,
2013-02-25 23:55:00,32.2,11.6,30.04,North,0,0.0,0.0,42,0.00,CLR,FEW,0.08,WeatherDisplay:10.37,2013-02-26 05:55:00,